createdAt,value
2022-09-28T00:00:02.219Z,99405.73
2022-09-28T00:02:50.723Z,99406.26
2022-09-28T00:05:18.685Z,99408.14
2022-09-28T00:07:46.599Z,99411.50
2022-09-28T00:10:15.464Z,99410.56
2022-09-28T00:12:43.420Z,99409.20
2022-09-28T00:15:11.928Z,99403.92
2022-09-28T00:17:39.868Z,99397.92
2022-09-28T00:20:09.186Z,99399.73
2022-09-28T00:22:37.326Z,99401.76
2022-09-28T00:25:06.685Z,99402.57
2022-09-28T00:27:34.654Z,99396.36
2022-09-28T00:30:03.442Z,99391.89
2022-09-28T00:32:31.487Z,99388.95
2022-09-28T00:34:59.335Z,99392.12
2022-09-28T00:37:27.479Z,99386.70
2022-09-28T00:39:55.224Z,99386.20
2022-09-28T00:42:24.274Z,99386.42
2022-09-28T00:44:52.574Z,99382.04
2022-09-28T00:47:25.063Z,99383.55
2022-09-28T00:49:56.296Z,99378.77
2022-09-28T00:52:27.970Z,99384.96
2022-09-28T00:54:56.945Z,99388.85
2022-09-28T00:57:25.515Z,99383.09
2022-09-28T00:59:53.497Z,99381.17
2022-09-28T01:02:21.533Z,99386.52
2022-09-28T01:04:49.479Z,99389.73
2022-09-28T01:07:17.728Z,99387.79
2022-09-28T01:09:46.072Z,99390.31
2022-09-28T01:12:14.144Z,99390.29
2022-09-28T01:14:43.343Z,99401.06
2022-09-28T01:17:13.992Z,99395.08
2022-09-28T01:19:57.715Z,99398.80
2022-09-28T01:22:31.146Z,99398.66
2022-09-28T01:25:06.657Z,99402.89
2022-09-28T01:27:38.519Z,99395.36
2022-09-28T01:30:08.146Z,99398.50
2022-09-28T01:32:40.810Z,99395.35
2022-09-28T01:35:10.719Z,99391.99
2022-09-28T01:37:42.848Z,99390.52
2022-09-28T01:40:12.088Z,99389.77
2022-09-28T01:42:41.286Z,99395.48
2022-09-28T01:45:14.602Z,99400.87
2022-09-28T01:47:43.679Z,99404.63
2022-09-28T01:50:13.659Z,99409.98
2022-09-28T01:52:45.453Z,99416.20
2022-09-28T01:55:17.511Z,99420.63
2022-09-28T01:57:48.449Z,99421.52
2022-09-28T02:00:18.492Z,99423.16
2022-09-28T02:02:48.304Z,99422.02
2022-09-28T02:05:17.872Z,99426.10
2022-09-28T02:07:50.573Z,99432.95
2022-09-28T02:10:21.282Z,99434.05
2022-09-28T02:12:51.956Z,99435.77
2022-09-28T02:15:20.524Z,99433.26
2022-09-28T02:17:49.126Z,99434.90
2022-09-28T02:20:17.494Z,99440.12
2022-09-28T02:22:48.338Z,99439.48
2022-09-28T02:25:20.899Z,99436.97
2022-09-28T02:27:51.647Z,99442.91
2022-09-28T02:30:19.798Z,99448.83
2022-09-28T02:32:49.117Z,99448.70
2022-09-28T02:35:23.063Z,99444.38
2022-09-28T02:37:51.119Z,99444.98
2022-09-28T02:40:20.448Z,99440.31
2022-09-28T02:42:53.901Z,99442.52
2022-09-28T02:45:27.537Z,99441.81
2022-09-28T02:48:04.226Z,99441.73
2022-09-28T02:50:39.095Z,99444.16
2022-09-28T02:53:17.205Z,99444.46
2022-09-28T02:55:55.510Z,99442.25
2022-09-28T02:58:32.710Z,99433.82
2022-09-28T03:01:03.192Z,99430.52
2022-09-28T03:03:37.808Z,99430.32
2022-09-28T03:06:09.532Z,99431.17
2022-09-28T03:08:39.439Z,99434.94
2022-09-28T03:11:10.824Z,99432.95
2022-09-28T03:13:39.043Z,99434.61
2022-09-28T03:16:09.034Z,99442.45
2022-09-28T03:18:36.887Z,99447.03
2022-09-28T03:21:05.173Z,99444.44
2022-09-28T03:23:33.105Z,99450.97
2022-09-28T03:26:01.112Z,99454.30
2022-09-28T03:28:29.112Z,99455.56
2022-09-28T03:30:57.030Z,99455.23
2022-09-28T03:33:24.972Z,99456.79
2022-09-28T03:35:52.880Z,99454.86
2022-09-28T03:38:20.729Z,99453.19
2022-09-28T03:40:53.612Z,99451.91
2022-09-28T03:43:21.960Z,99454.65
2022-09-28T03:45:53.821Z,99458.30
2022-09-28T03:48:25.120Z,99462.54
2022-09-28T03:50:56.308Z,99468.45
2022-09-28T03:53:24.907Z,99469.34
2022-09-28T03:55:53.381Z,99476.87
2022-09-28T03:58:21.650Z,99481.31
2022-09-28T04:00:50.115Z,99487.22
2022-09-28T04:03:21.123Z,99486.66
2022-09-28T04:05:51.299Z,99486.27
2022-09-28T04:08:19.128Z,99486.94
2022-09-28T04:10:49.413Z,99484.80
2022-09-28T04:13:17.407Z,99486.81
2022-09-28T04:15:51.753Z,99481.54
2022-09-28T04:18:20.249Z,99479.91
2022-09-28T04:20:48.137Z,99481.77
2022-09-28T04:23:16.175Z,99483.91
2022-09-28T04:25:47.325Z,99483.15
2022-09-28T04:28:33.551Z,99483.74
2022-09-28T04:31:01.347Z,99482.67
2022-09-28T04:33:29.467Z,99483.57
2022-09-28T04:35:57.389Z,99481.88
2022-09-28T04:38:41.847Z,99486.86
2022-09-28T04:41:13.341Z,99491.58
2022-09-28T04:43:46.339Z,99493.36
2022-09-28T04:46:14.240Z,99493.89
2022-09-28T04:48:42.124Z,99489.68
2022-09-28T04:51:10.087Z,99492.66
2022-09-28T04:53:37.891Z,99496.48
2022-09-28T04:56:06.783Z,99502.27
2022-09-28T04:58:35.750Z,99504.27
2022-09-28T05:01:05.322Z,99504.02
2022-09-28T05:03:33.708Z,99506.23
2022-09-28T05:06:01.725Z,99509.65
2022-09-28T05:08:29.776Z,99517.66
2022-09-28T05:10:59.421Z,99519.20
2022-09-28T05:13:27.827Z,99529.00
2022-09-28T05:15:59.659Z,99540.56
2022-09-28T05:18:30.101Z,99546.29
2022-09-28T05:21:00.804Z,99542.83
2022-09-28T05:23:28.683Z,99542.81
2022-09-28T05:25:56.600Z,99547.76
2022-09-28T05:28:27.904Z,99552.77
2022-09-28T05:30:59.272Z,99552.66
2022-09-28T05:33:27.268Z,99551.19
2022-09-28T05:36:00.798Z,99554.20
2022-09-28T05:38:29.827Z,99551.34
2022-09-28T05:40:58.048Z,99553.63
2022-09-28T05:43:26.028Z,99549.95
2022-09-28T05:45:55.829Z,99546.77
2022-09-28T05:48:24.072Z,99547.51
2022-09-28T05:50:52.215Z,99550.48
2022-09-28T05:53:20.188Z,99552.09
2022-09-28T05:55:48.513Z,99553.37
2022-09-28T05:58:16.955Z,99553.40
2022-09-28T06:00:44.762Z,99556.95
2022-09-28T06:03:13.483Z,99556.64
2022-09-28T06:05:41.482Z,99557.44
2022-09-28T06:08:10.235Z,99559.92
2022-09-28T06:10:38.828Z,99561.20
2022-09-28T06:13:07.202Z,99560.73
2022-09-28T06:15:36.100Z,99560.00
2022-09-28T06:18:05.035Z,99560.16
2022-09-28T06:20:34.009Z,99555.61
2022-09-28T06:23:02.065Z,99551.23
2022-09-28T06:25:30.060Z,99545.55
2022-09-28T06:27:58.828Z,99548.88
2022-09-28T06:30:27.835Z,99559.20
2022-09-28T06:32:56.438Z,99562.46
2022-09-28T06:35:25.529Z,99564.55
2022-09-28T06:37:53.440Z,99568.05
2022-09-28T06:40:21.699Z,99566.70
2022-09-28T06:42:55.996Z,99568.86
2022-09-28T06:45:24.840Z,99570.48
2022-09-28T06:47:56.867Z,99574.38
2022-09-28T06:50:25.901Z,99574.13
2022-09-28T06:52:54.381Z,99572.34
2022-09-28T06:55:22.576Z,99562.30
2022-09-28T06:57:58.378Z,99559.15
2022-09-28T07:00:26.647Z,99559.80
2022-09-28T07:02:54.820Z,99557.02
2022-09-28T07:05:26.723Z,99563.96
2022-09-28T07:07:55.283Z,99565.48
2022-09-28T07:10:23.801Z,99573.38
2022-09-28T07:12:51.978Z,99577.21
2022-09-28T07:15:20.745Z,99575.26
2022-09-28T07:18:00.571Z,99573.41
2022-09-28T07:20:31.226Z,99577.24
2022-09-28T07:23:12.344Z,99583.29
2022-09-28T07:25:47.119Z,99580.48
2022-09-28T07:28:15.500Z,99578.55
2022-09-28T07:30:44.233Z,99572.70
2022-09-28T07:33:13.802Z,99573.89
2022-09-28T07:35:42.367Z,99577.61
2022-09-28T07:38:10.870Z,99584.27
2022-09-28T07:40:56.936Z,99588.82
2022-09-28T07:43:24.971Z,99596.12
2022-09-28T07:45:54.313Z,99605.60
2022-09-28T07:48:22.940Z,99607.71
2022-09-28T07:50:51.909Z,99609.14
2022-09-28T07:53:20.037Z,99615.83
2022-09-28T07:55:51.637Z,99609.60
2022-09-28T07:58:19.762Z,99612.84
2022-09-28T08:00:48.523Z,99611.33
2022-09-28T08:03:17.183Z,99608.01
2022-09-28T08:05:46.290Z,99603.41
2022-09-28T08:08:14.350Z,99601.80
2022-09-28T08:10:46.586Z,99608.19
2022-09-28T08:13:15.824Z,99608.35
2022-09-28T08:15:43.833Z,99603.64
2022-09-28T08:18:11.775Z,99599.52
2022-09-28T08:20:57.875Z,99607.66
2022-09-28T08:23:25.844Z,99607.03
2022-09-28T08:25:54.691Z,99605.48
2022-09-28T08:28:23.208Z,99606.11
2022-09-28T08:30:51.636Z,99614.59
2022-09-28T08:33:20.672Z,99614.61
2022-09-28T08:35:54.920Z,99617.79
2022-09-28T08:38:22.941Z,99614.49
2022-09-28T08:40:57.549Z,99616.95
2022-09-28T08:43:36.298Z,99614.66
2022-09-28T08:46:04.430Z,99614.27
2022-09-28T08:48:56.330Z,99614.08
2022-09-28T08:51:38.299Z,99620.63
2022-09-28T08:54:11.946Z,99610.34
2022-09-28T08:56:43.184Z,99604.32
2022-09-28T08:59:13.665Z,99601.60
2022-09-28T09:01:45.143Z,99599.95
2022-09-28T09:04:13.348Z,99599.51
2022-09-28T09:06:53.240Z,99599.45
2022-09-28T09:09:26.432Z,99599.64
2022-09-28T09:12:00.299Z,99594.59
2022-09-28T09:14:37.440Z,99592.98
2022-09-28T09:17:10.417Z,99590.64
2022-09-28T09:19:44.767Z,99598.00
2022-09-28T09:22:16.192Z,99600.16
2022-09-28T09:24:48.599Z,99598.48
2022-09-28T09:27:32.432Z,99597.07
2022-09-28T09:30:06.118Z,99592.73
2022-09-28T09:32:41.231Z,99596.47
2022-09-28T09:35:23.213Z,99590.42
2022-09-28T09:38:02.781Z,99586.61
2022-09-28T09:40:40.434Z,99594.98
2022-09-28T09:43:20.829Z,99591.18
2022-09-28T09:45:56.445Z,99588.06
2022-09-28T09:48:27.006Z,99583.97
2022-09-28T09:50:57.692Z,99583.75
2022-09-28T09:53:29.292Z,99586.45
2022-09-28T09:55:59.858Z,99587.69
2022-09-28T09:58:31.084Z,99591.55
2022-09-28T10:01:04.634Z,99589.81
2022-09-28T10:03:34.690Z,99590.27
2022-09-28T10:06:05.726Z,99588.92
2022-09-28T10:08:35.145Z,99587.81
2022-09-28T10:11:07.092Z,99584.56
2022-09-28T10:13:35.080Z,99581.45
2022-09-28T10:16:03.151Z,99576.23
2022-09-28T10:18:31.304Z,99575.39
2022-09-28T10:20:59.214Z,99581.86
2022-09-28T10:23:29.620Z,99583.53
2022-09-28T10:26:02.186Z,99582.67
2022-09-28T10:28:33.953Z,99584.61
2022-09-28T10:31:21.785Z,99583.27
2022-09-28T10:33:53.039Z,99585.00
2022-09-28T10:36:20.960Z,99584.25
2022-09-28T10:38:49.474Z,99586.34
2022-09-28T10:41:17.853Z,99581.20
2022-09-28T10:44:05.453Z,99585.92
2022-09-28T10:46:34.303Z,99583.70
2022-09-28T10:49:02.796Z,99584.81
2022-09-28T10:51:43.729Z,99586.58
2022-09-28T10:54:15.807Z,99589.02
2022-09-28T10:56:44.690Z,99590.22
2022-09-28T10:59:38.160Z,99588.98
2022-09-28T11:02:16.931Z,99594.02
2022-09-28T11:04:50.149Z,99589.17
2022-09-28T11:07:19.676Z,99592.06
2022-09-28T11:09:49.232Z,99589.18
2022-09-28T11:12:18.467Z,99591.38
2022-09-28T11:14:52.116Z,99588.18
2022-09-28T11:17:26.701Z,99586.52
2022-09-28T11:19:55.582Z,99583.64
2022-09-28T11:22:25.620Z,99574.02
2022-09-28T11:25:12.420Z,99578.52
2022-09-28T11:27:40.476Z,99570.95
2022-09-28T11:30:21.108Z,99568.80
2022-09-28T11:32:50.199Z,99564.27
2022-09-28T11:35:20.352Z,99571.12
2022-09-28T11:37:54.418Z,99575.17
2022-09-28T11:40:29.460Z,99574.93
2022-09-28T11:45:47.586Z,99560.23
2022-09-28T11:48:17.733Z,99554.21
2022-09-28T11:50:48.567Z,99555.91
2022-09-28T11:53:22.954Z,99558.42
2022-09-28T11:55:54.620Z,99563.74
2022-09-28T11:58:26.215Z,99560.20
2022-09-28T12:00:59.422Z,99556.14
2022-09-28T12:03:32.839Z,99554.45
2022-09-28T12:06:02.876Z,99552.02
2022-09-28T12:08:34.622Z,99557.02
2022-09-28T12:11:09.267Z,99555.81
2022-09-28T12:13:40.077Z,99559.98
2022-09-28T12:16:32.677Z,99560.42
2022-09-28T12:19:04.235Z,99548.59
2022-09-28T12:21:36.342Z,99548.00
2022-09-28T12:24:06.852Z,99548.05
2022-09-28T12:26:40.427Z,99543.05
2022-09-28T12:29:13.903Z,99542.05
2022-09-28T12:31:45.892Z,99543.41
2022-09-28T12:34:14.659Z,99543.48
2022-09-28T12:36:49.520Z,99541.83
2022-09-28T12:39:40.950Z,99539.15
2022-09-28T12:42:24.928Z,99549.63
2022-09-28T12:44:59.751Z,99548.23
2022-09-28T12:47:45.575Z,99550.59
2022-09-28T12:50:38.742Z,99546.75
2022-09-28T12:53:18.791Z,99541.23
2022-09-28T12:55:57.953Z,99535.30
2022-09-28T12:58:33.334Z,99537.09
2022-09-28T13:01:05.601Z,99537.82
2022-09-28T13:03:45.042Z,99533.13
2022-09-28T13:06:24.698Z,99534.15
2022-09-28T13:09:09.248Z,99532.41
2022-09-28T13:11:41.563Z,99542.24
2022-09-28T13:14:29.130Z,99540.51
2022-09-28T13:17:00.913Z,99542.67
2022-09-28T13:19:33.464Z,99546.20
2022-09-28T13:22:09.544Z,99548.89
2022-09-28T13:24:43.553Z,99557.17
2022-09-28T13:27:14.983Z,99550.77
2022-09-28T13:29:43.274Z,99554.38
2022-09-28T13:32:12.067Z,99551.01
2022-09-28T13:34:40.502Z,99559.66
2022-09-28T13:37:10.663Z,99558.71
2022-09-28T13:39:48.159Z,99558.81
2022-09-28T13:42:25.237Z,99563.69
2022-09-28T13:45:01.755Z,99568.36
2022-09-28T13:47:44.301Z,99564.04
2022-09-28T13:50:19.646Z,99570.09
2022-09-28T13:52:52.859Z,99566.45
2022-09-28T13:55:32.412Z,99560.86
2022-09-28T13:58:03.931Z,99564.41
2022-09-28T14:00:36.528Z,99568.52
2022-09-28T14:03:24.928Z,99566.98
2022-09-28T14:06:10.992Z,99573.70
2022-09-28T14:08:44.077Z,99578.61
2022-09-28T14:11:40.161Z,99580.61
2022-09-28T14:14:34.981Z,99581.48
2022-09-28T14:17:20.705Z,99579.89
2022-09-28T14:19:52.837Z,99579.98
2022-09-28T14:22:25.518Z,99581.05
2022-09-28T14:25:02.434Z,99584.77
2022-09-28T14:27:48.707Z,99588.50
2022-09-28T14:30:24.036Z,99590.39
2022-09-28T14:32:54.957Z,99586.54
2022-09-28T14:35:30.719Z,99590.45
2022-09-28T14:38:24.032Z,99594.95
2022-09-28T14:41:12.116Z,99595.39
2022-09-28T14:44:04.316Z,99595.66
2022-09-28T14:46:36.510Z,99594.67
2022-09-28T14:49:05.617Z,99591.06
2022-09-28T14:51:57.568Z,99590.80
2022-09-28T14:54:26.516Z,99586.71
2022-09-28T14:57:07.511Z,99592.02
2022-09-28T14:59:42.353Z,99594.23
2022-09-28T15:02:14.828Z,99603.61
2022-09-28T15:04:45.906Z,99604.47
2022-09-28T15:07:20.854Z,99605.86
2022-09-28T15:09:50.139Z,99600.75
2022-09-28T15:12:19.525Z,99601.84
2022-09-28T15:14:50.715Z,99606.52
2022-09-28T15:17:20.651Z,99606.29
2022-09-28T15:19:51.692Z,99614.50
2022-09-28T15:22:20.704Z,99612.95
2022-09-28T15:24:59.964Z,99613.50
2022-09-28T15:27:35.573Z,99621.35
2022-09-28T15:30:17.671Z,99628.55
2022-09-28T15:32:45.606Z,99634.35
2022-09-28T15:35:16.697Z,99634.89
2022-09-28T15:37:44.803Z,99634.49
2022-09-28T15:40:13.842Z,99634.89
2022-09-28T15:42:41.710Z,99631.11
2022-09-28T15:45:26.091Z,99630.27
2022-09-28T15:48:16.556Z,99629.98
2022-09-28T15:50:56.427Z,99638.47
2022-09-28T15:53:24.710Z,99633.95
2022-09-28T15:55:54.211Z,99639.71
2022-09-28T15:58:23.819Z,99639.33
2022-09-28T16:01:11.894Z,99642.73
2022-09-28T16:03:39.827Z,99644.48
2022-09-28T16:06:08.730Z,99647.59
2022-09-28T16:08:42.256Z,99650.95
2022-09-28T16:11:13.257Z,99654.14
2022-09-28T16:13:48.089Z,99655.39
2022-09-28T16:16:16.740Z,99653.09
2022-09-28T16:18:48.732Z,99655.23
2022-09-28T16:21:33.547Z,99653.17
2022-09-28T16:24:01.650Z,99654.23
2022-09-28T16:26:31.981Z,99648.20
2022-09-28T16:29:01.488Z,99645.10
2022-09-28T16:31:33.798Z,99641.98
2022-09-28T16:34:11.543Z,99643.85
2022-09-28T16:36:43.136Z,99652.36
2022-09-28T16:39:12.059Z,99654.35
2022-09-28T16:41:43.714Z,99660.09
2022-09-28T16:44:15.026Z,99664.45
2022-09-28T16:46:43.691Z,99666.71
2022-09-28T16:49:12.804Z,99671.13
2022-09-28T16:51:40.641Z,99665.91
2022-09-28T16:54:31.654Z,99671.05
2022-09-28T16:56:59.659Z,99670.26
2022-09-28T16:59:27.729Z,99670.08
2022-09-28T17:01:56.427Z,99676.34
2022-09-28T17:04:24.624Z,99676.35
2022-09-28T17:06:53.864Z,99674.16
2022-09-28T17:09:21.951Z,99670.41
2022-09-28T17:11:55.032Z,99676.45
2022-09-28T17:14:24.026Z,99672.67
2022-09-28T17:17:11.577Z,99674.20
2022-09-28T17:19:41.673Z,99674.92
2022-09-28T17:22:09.935Z,99677.67
2022-09-28T17:24:37.810Z,99681.34
2022-09-28T17:27:06.700Z,99677.33
2022-09-28T17:29:34.658Z,99676.96
2022-09-28T17:32:04.488Z,99682.38
2022-09-28T17:34:32.469Z,99686.11
2022-09-28T17:37:00.456Z,99687.65
2022-09-28T17:39:28.299Z,99686.61
2022-09-28T17:41:56.228Z,99686.30
2022-09-28T17:44:24.239Z,99688.99
2022-09-28T17:46:53.334Z,99687.60
2022-09-28T17:49:21.201Z,99689.22
2022-09-28T17:51:49.923Z,99687.52
2022-09-28T17:54:20.341Z,99691.10
2022-09-28T17:56:48.560Z,99690.06
2022-09-28T17:59:17.843Z,99692.14
2022-09-28T18:01:47.516Z,99693.67
2022-09-28T18:04:33.303Z,99692.35
2022-09-28T18:07:03.481Z,99692.35
2022-09-28T18:09:31.370Z,99690.66
2022-09-28T18:12:00.695Z,99691.48
2022-09-28T18:14:28.625Z,99690.78
2022-09-28T18:16:56.571Z,99686.22
2022-09-28T18:19:28.615Z,99685.30
2022-09-28T18:22:00.734Z,99683.38
2022-09-28T18:24:28.659Z,99685.75
2022-09-28T18:26:56.588Z,99684.77
2022-09-28T18:29:24.412Z,99693.20
2022-09-28T18:31:52.503Z,99695.85
2022-09-28T18:34:20.365Z,99694.21
2022-09-28T18:36:48.288Z,99694.17
2022-09-28T18:39:16.217Z,99694.42
2022-09-28T18:41:44.127Z,99696.85
2022-09-28T18:44:12.035Z,99694.71
2022-09-28T18:46:42.008Z,99695.38
2022-09-28T18:49:10.111Z,99688.34
2022-09-28T18:51:38.053Z,99687.53
2022-09-28T18:54:07.114Z,99690.21
2022-09-28T18:56:37.477Z,99696.63
2022-09-28T18:59:11.135Z,99696.91
2022-09-28T19:01:41.666Z,99696.80
2022-09-28T19:04:10.853Z,99698.81
2022-09-28T19:06:40.377Z,99700.86
2022-09-28T19:09:08.737Z,99705.38
2022-09-28T19:11:36.821Z,99711.02
2022-09-28T19:14:04.804Z,99711.30
2022-09-28T19:16:33.510Z,99715.24
2022-09-28T19:19:02.176Z,99722.20
2022-09-28T19:21:30.630Z,99722.60
2022-09-28T19:24:01.062Z,99723.14
2022-09-28T19:26:28.992Z,99724.95
2022-09-28T19:28:57.410Z,99719.41
2022-09-28T19:31:26.172Z,99721.73
2022-09-28T19:33:54.060Z,99720.95
2022-09-28T19:36:23.372Z,99716.95
2022-09-28T19:38:51.826Z,99711.77
2022-09-28T19:41:39.056Z,99716.61
2022-09-28T19:44:09.700Z,99717.63
2022-09-28T19:46:38.898Z,99717.98
2022-09-28T19:49:07.788Z,99720.85
2022-09-28T19:51:37.176Z,99718.30
2022-09-28T19:54:10.686Z,99723.70
2022-09-28T19:56:38.472Z,99728.17
2022-09-28T19:59:06.336Z,99725.17
2022-09-28T20:01:34.530Z,99726.56
2022-09-28T20:04:02.855Z,99726.84
2022-09-28T20:06:31.456Z,99733.32
2022-09-28T20:08:59.683Z,99734.45
2022-09-28T20:11:30.909Z,99740.36
2022-09-28T20:13:59.754Z,99744.28
2022-09-28T20:16:28.549Z,99744.33
2022-09-28T20:19:00.064Z,99743.27
2022-09-28T20:21:28.080Z,99749.15
2022-09-28T20:23:56.865Z,99746.15
2022-09-28T20:26:25.556Z,99746.73
2022-09-28T20:28:54.119Z,99748.52
2022-09-28T20:31:23.280Z,99745.25
2022-09-28T20:33:51.895Z,99749.43
2022-09-28T20:36:21.228Z,99752.84
2022-09-28T20:38:49.990Z,99754.83
2022-09-28T20:41:18.892Z,99755.04
2022-09-28T20:43:50.643Z,99756.13
2022-09-28T20:46:20.703Z,99763.16
2022-09-28T20:48:49.658Z,99767.16
2022-09-28T20:51:18.738Z,99766.81
2022-09-28T20:53:48.060Z,99766.39
2022-09-28T20:56:17.764Z,99768.07
2022-09-28T20:58:45.969Z,99771.16
2022-09-28T21:01:16.723Z,99772.21
2022-09-28T21:03:47.485Z,99772.97
2022-09-28T21:06:16.148Z,99773.98
2022-09-28T21:08:44.773Z,99773.50
2022-09-28T21:11:13.868Z,99775.34
2022-09-28T21:13:42.519Z,99774.77
2022-09-28T21:16:11.340Z,99781.96
2022-09-28T21:18:39.571Z,99784.44
2022-09-28T21:21:08.002Z,99786.54
2022-09-28T21:23:36.042Z,99784.86
2022-09-28T21:26:05.579Z,99786.09
2022-09-28T21:28:34.505Z,99790.50
2022-09-28T21:31:02.882Z,99794.05
2022-09-28T21:33:30.897Z,99796.12
2022-09-28T21:36:01.252Z,99799.27
2022-09-28T21:38:29.315Z,99795.74
2022-09-28T21:40:57.975Z,99795.29
2022-09-28T21:43:26.586Z,99794.56
2022-09-28T21:45:55.524Z,99802.10
2022-09-28T21:48:24.429Z,99803.19
2022-09-28T21:50:56.343Z,99797.77
2022-09-28T21:53:25.142Z,99803.03
2022-09-28T21:55:53.702Z,99800.98
2022-09-28T21:58:22.921Z,99804.13
2022-09-28T22:00:58.178Z,99805.08
2022-09-28T22:03:27.019Z,99802.61
2022-09-28T22:05:54.796Z,99802.30
2022-09-28T22:08:22.982Z,99804.70
2022-09-28T22:11:00.190Z,99804.90
2022-09-28T22:13:28.758Z,99801.11
2022-09-28T22:15:57.276Z,99792.64
2022-09-28T22:18:26.102Z,99790.17
2022-09-28T22:20:59.208Z,99790.34
2022-09-28T22:23:27.276Z,99796.12
2022-09-28T22:25:58.924Z,99795.23
2022-09-28T22:28:26.860Z,99797.91
2022-09-28T22:30:55.027Z,99798.20
2022-09-28T22:33:23.247Z,99802.73
2022-09-28T22:35:51.205Z,99801.05
2022-09-28T22:38:19.268Z,99802.55
2022-09-28T22:40:50.356Z,99803.14
2022-09-28T22:43:18.755Z,99802.33
2022-09-28T22:45:46.773Z,99798.89
2022-09-28T22:48:14.743Z,99796.35
2022-09-28T22:50:48.924Z,99798.10
2022-09-28T22:53:16.873Z,99797.73
2022-09-28T22:55:44.929Z,99800.56
2022-09-28T22:58:13.095Z,99800.39
2022-09-28T23:00:41.112Z,99796.73
2022-09-28T23:03:09.301Z,99795.19
2022-09-28T23:05:37.299Z,99797.30
2022-09-28T23:08:05.133Z,99796.25
2022-09-28T23:10:33.172Z,99799.80
2022-09-28T23:13:00.951Z,99797.67
2022-09-28T23:15:29.359Z,99796.91
2022-09-28T23:17:57.341Z,99794.73
2022-09-28T23:20:25.317Z,99797.29
2022-09-28T23:22:53.263Z,99791.35
2022-09-28T23:25:21.172Z,99793.31
2022-09-28T23:27:49.826Z,99790.96
2022-09-28T23:30:19.432Z,99794.66
2022-09-28T23:32:47.332Z,99795.77
2022-09-28T23:35:15.306Z,99796.71
2022-09-28T23:37:43.172Z,99802.69
2022-09-28T23:40:11.170Z,99804.79
2022-09-28T23:42:39.037Z,99802.55
2022-09-28T23:45:07.949Z,99795.00
2022-09-28T23:47:36.825Z,99793.33
2022-09-28T23:50:05.458Z,99785.69
2022-09-28T23:52:33.524Z,99783.19
2022-09-28T23:55:01.353Z,99781.92
2022-09-28T23:57:29.229Z,99778.92
2022-09-28T23:59:56.993Z,99774.59
